sensor_id;sensor_type;location;lat;lon;timestamp;temperature;humidity
25914;DHT22;13718;50.922;5.346;2023-07-13T00:00:24;17.90;96.30
25914;DHT22;13718;50.922;5.346;2023-07-13T00:02:50;18.00;96.40
25914;DHT22;13718;50.922;5.346;2023-07-13T00:05:20;17.90;96.60
25914;DHT22;13718;50.922;5.346;2023-07-13T00:07:45;17.90;96.90
25914;DHT22;13718;50.922;5.346;2023-07-13T00:10:12;17.90;96.80
25914;DHT22;13718;50.922;5.346;2023-07-13T00:12:38;17.80;97.10
25914;DHT22;13718;50.922;5.346;2023-07-13T00:15:07;17.70;97.50
25914;DHT22;13718;50.922;5.346;2023-07-13T00:17:36;17.60;97.90
25914;DHT22;13718;50.922;5.346;2023-07-13T00:20:04;17.60;98.20
25914;DHT22;13718;50.922;5.346;2023-07-13T00:22:30;17.60;98.10
25914;DHT22;13718;50.922;5.346;2023-07-13T00:24:56;17.80;98.30
25914;DHT22;13718;50.922;5.346;2023-07-13T00:27:22;17.70;98.40
25914;DHT22;13718;50.922;5.346;2023-07-13T00:29:48;17.60;98.60
25914;DHT22;13718;50.922;5.346;2023-07-13T00:32:13;17.50;99.00
25914;DHT22;13718;50.922;5.346;2023-07-13T00:34:39;17.50;99.30
25914;DHT22;13718;50.922;5.346;2023-07-13T00:37:06;17.40;99.70
25914;DHT22;13718;50.922;5.346;2023-07-13T00:39:33;17.60;99.90
25914;DHT22;13718;50.922;5.346;2023-07-13T00:42:00;17.70;99.90
25914;DHT22;13718;50.922;5.346;2023-07-13T00:44:26;17.70;99.90
25914;DHT22;13718;50.922;5.346;2023-07-13T00:46:51;17.50;99.90
25914;DHT22;13718;50.922;5.346;2023-07-13T00:49:20;17.40;99.90
25914;DHT22;13718;50.922;5.346;2023-07-13T00:51:51;17.40;99.90
25914;DHT22;13718;50.922;5.346;2023-07-13T00:54:22;17.40;99.90
25914;DHT22;13718;50.922;5.346;2023-07-13T00:56:51;17.40;99.90
25914;DHT22;13718;50.922;5.346;2023-07-13T00:59:18;17.30;99.90
25914;DHT22;13718;50.922;5.346;2023-07-13T01:01:46;17.20;99.90
25914;DHT22;13718;50.922;5.346;2023-07-13T01:04:11;17.10;99.90
25914;DHT22;13718;50.922;5.346;2023-07-13T01:06:39;17.10;99.90
25914;DHT22;13718;50.922;5.346;2023-07-13T01:09:07;17.00;99.90
25914;DHT22;13718;50.922;5.346;2023-07-13T01:11:33;17.10;99.90
25914;DHT22;13718;50.922;5.346;2023-07-13T01:14:01;17.20;99.90
25914;DHT22;13718;50.922;5.346;2023-07-13T01:16:32;17.30;99.90
25914;DHT22;13718;50.922;5.346;2023-07-13T01:18:58;17.40;99.90
25914;DHT22;13718;50.922;5.346;2023-07-13T01:21:25;17.40;99.90
25914;DHT22;13718;50.922;5.346;2023-07-13T01:23:52;17.30;99.90
25914;DHT22;13718;50.922;5.346;2023-07-13T01:26:17;17.20;99.90
25914;DHT22;13718;50.922;5.346;2023-07-13T01:28:43;17.10;99.90
25914;DHT22;13718;50.922;5.346;2023-07-13T01:31:10;17.10;99.90
25914;DHT22;13718;50.922;5.346;2023-07-13T01:33:38;17.10;99.90
25914;DHT22;13718;50.922;5.346;2023-07-13T01:36:06;17.10;99.90
25914;DHT22;13718;50.922;5.346;2023-07-13T01:38:32;17.10;99.90
25914;DHT22;13718;50.922;5.346;2023-07-13T01:40:58;17.20;99.90
25914;DHT22;13718;50.922;5.346;2023-07-13T01:43:27;17.40;99.90
25914;DHT22;13718;50.922;5.346;2023-07-13T01:45:53;17.30;99.90
25914;DHT22;13718;50.922;5.346;2023-07-13T01:48:19;17.20;99.90
25914;DHT22;13718;50.922;5.346;2023-07-13T01:50:47;17.00;99.90
25914;DHT22;13718;50.922;5.346;2023-07-13T01:53:13;16.90;99.90
25914;DHT22;13718;50.922;5.346;2023-07-13T01:55:39;16.90;99.90
25914;DHT22;13718;50.922;5.346;2023-07-13T01:58:05;16.80;99.90
25914;DHT22;13718;50.922;5.346;2023-07-13T02:00:32;16.90;99.90
25914;DHT22;13718;50.922;5.346;2023-07-13T02:02:58;16.80;99.90
25914;DHT22;13718;50.922;5.346;2023-07-13T02:05:24;16.90;99.90
25914;DHT22;13718;50.922;5.346;2023-07-13T02:07:49;16.80;99.90
25914;DHT22;13718;50.922;5.346;2023-07-13T02:10:15;16.70;99.90
25914;DHT22;13718;50.922;5.346;2023-07-13T02:12:42;16.70;99.90
25914;DHT22;13718;50.922;5.346;2023-07-13T02:15:08;16.70;99.90
25914;DHT22;13718;50.922;5.346;2023-07-13T02:17:35;16.70;99.90
25914;DHT22;13718;50.922;5.346;2023-07-13T02:20:02;16.60;99.90
25914;DHT22;13718;50.922;5.346;2023-07-13T02:22:28;16.70;99.90
25914;DHT22;13718;50.922;5.346;2023-07-13T02:24:54;16.90;99.90
25914;DHT22;13718;50.922;5.346;2023-07-13T02:27:20;17.00;99.90
25914;DHT22;13718;50.922;5.346;2023-07-13T02:29:45;17.00;99.90
25914;DHT22;13718;50.922;5.346;2023-07-13T02:32:12;17.00;99.90
25914;DHT22;13718;50.922;5.346;2023-07-13T02:34:37;16.70;99.90
25914;DHT22;13718;50.922;5.346;2023-07-13T02:37:03;16.60;99.90
25914;DHT22;13718;50.922;5.346;2023-07-13T02:39:29;16.60;99.90
25914;DHT22;13718;50.922;5.346;2023-07-13T02:41:55;16.50;99.90
25914;DHT22;13718;50.922;5.346;2023-07-13T02:44:20;16.50;99.90
25914;DHT22;13718;50.922;5.346;2023-07-13T02:46:46;16.60;99.90
25914;DHT22;13718;50.922;5.346;2023-07-13T02:49:12;16.60;99.90
25914;DHT22;13718;50.922;5.346;2023-07-13T02:51:37;16.80;99.90
25914;DHT22;13718;50.922;5.346;2023-07-13T02:54:04;16.90;99.90
25914;DHT22;13718;50.922;5.346;2023-07-13T02:56:31;16.90;99.90
25914;DHT22;13718;50.922;5.346;2023-07-13T02:58:58;16.80;99.90
25914;DHT22;13718;50.922;5.346;2023-07-13T03:01:23;16.80;99.90
25914;DHT22;13718;50.922;5.346;2023-07-13T03:03:50;16.70;99.90
25914;DHT22;13718;50.922;5.346;2023-07-13T03:06:17;16.60;99.90
25914;DHT22;13718;50.922;5.346;2023-07-13T03:08:44;16.50;99.90
25914;DHT22;13718;50.922;5.346;2023-07-13T03:11:17;16.70;99.90
25914;DHT22;13718;50.922;5.346;2023-07-13T03:13:43;16.50;99.90
25914;DHT22;13718;50.922;5.346;2023-07-13T03:16:10;16.60;99.90
25914;DHT22;13718;50.922;5.346;2023-07-13T03:18:36;16.70;99.90
25914;DHT22;13718;50.922;5.346;2023-07-13T03:21:02;16.70;99.90
25914;DHT22;13718;50.922;5.346;2023-07-13T03:23:28;16.70;99.90
25914;DHT22;13718;50.922;5.346;2023-07-13T03:26:08;16.60;99.90
25914;DHT22;13718;50.922;5.346;2023-07-13T03:28:35;16.70;99.90
25914;DHT22;13718;50.922;5.346;2023-07-13T03:31:09;16.60;99.90
25914;DHT22;13718;50.922;5.346;2023-07-13T03:33:36;16.60;99.90
25914;DHT22;13718;50.922;5.346;2023-07-13T03:36:03;16.90;99.90
25914;DHT22;13718;50.922;5.346;2023-07-13T03:38:29;16.70;99.90
25914;DHT22;13718;50.922;5.346;2023-07-13T03:40:55;16.70;99.90
25914;DHT22;13718;50.922;5.346;2023-07-13T03:43:21;16.70;99.90
25914;DHT22;13718;50.922;5.346;2023-07-13T03:45:47;16.90;99.90
25914;DHT22;13718;50.922;5.346;2023-07-13T03:48:13;17.00;99.90
25914;DHT22;13718;50.922;5.346;2023-07-13T03:50:39;17.00;99.90
25914;DHT22;13718;50.922;5.346;2023-07-13T03:53:05;17.00;99.90
25914;DHT22;13718;50.922;5.346;2023-07-13T03:55:31;16.80;99.90
25914;DHT22;13718;50.922;5.346;2023-07-13T03:58:22;17.00;99.90
25914;DHT22;13718;50.922;5.346;2023-07-13T04:00:46;17.00;99.90
25914;DHT22;13718;50.922;5.346;2023-07-13T04:03:12;17.00;99.90
25914;DHT22;13718;50.922;5.346;2023-07-13T04:05:38;17.10;99.90
25914;DHT22;13718;50.922;5.346;2023-07-13T04:08:06;17.10;99.90
25914;DHT22;13718;50.922;5.346;2023-07-13T04:10:32;17.20;99.90
25914;DHT22;13718;50.922;5.346;2023-07-13T04:12:57;17.20;99.90
25914;DHT22;13718;50.922;5.346;2023-07-13T04:15:23;17.40;99.90
25914;DHT22;13718;50.922;5.346;2023-07-13T04:17:49;17.50;99.90
25914;DHT22;13718;50.922;5.346;2023-07-13T04:20:14;17.60;99.90
25914;DHT22;13718;50.922;5.346;2023-07-13T04:22:40;17.60;99.90
25914;DHT22;13718;50.922;5.346;2023-07-13T04:25:06;17.60;99.90
25914;DHT22;13718;50.922;5.346;2023-07-13T04:27:32;17.60;99.90
25914;DHT22;13718;50.922;5.346;2023-07-13T04:29:57;17.50;99.90
25914;DHT22;13718;50.922;5.346;2023-07-13T04:32:23;17.60;99.90
25914;DHT22;13718;50.922;5.346;2023-07-13T04:34:49;17.80;99.90
25914;DHT22;13718;50.922;5.346;2023-07-13T04:37:20;17.80;99.90
25914;DHT22;13718;50.922;5.346;2023-07-13T04:39:46;17.70;99.90
25914;DHT22;13718;50.922;5.346;2023-07-13T04:42:12;17.80;99.90
25914;DHT22;13718;50.922;5.346;2023-07-13T04:44:38;17.80;99.90
25914;DHT22;13718;50.922;5.346;2023-07-13T04:47:03;17.80;99.90
25914;DHT22;13718;50.922;5.346;2023-07-13T04:49:29;17.90;99.90
25914;DHT22;13718;50.922;5.346;2023-07-13T04:51:55;17.90;99.90
25914;DHT22;13718;50.922;5.346;2023-07-13T04:54:21;17.80;99.90
25914;DHT22;13718;50.922;5.346;2023-07-13T04:56:47;17.90;99.90
25914;DHT22;13718;50.922;5.346;2023-07-13T04:59:13;17.90;99.90
25914;DHT22;13718;50.922;5.346;2023-07-13T05:01:39;18.00;99.90
25914;DHT22;13718;50.922;5.346;2023-07-13T05:04:06;18.10;99.90
25914;DHT22;13718;50.922;5.346;2023-07-13T05:06:32;18.20;99.90
25914;DHT22;13718;50.922;5.346;2023-07-13T05:08:57;18.10;99.90
25914;DHT22;13718;50.922;5.346;2023-07-13T05:11:23;18.10;99.90
25914;DHT22;13718;50.922;5.346;2023-07-13T05:13:49;18.10;99.90
25914;DHT22;13718;50.922;5.346;2023-07-13T05:16:15;18.30;99.90
25914;DHT22;13718;50.922;5.346;2023-07-13T05:18:41;18.30;99.90
25914;DHT22;13718;50.922;5.346;2023-07-13T05:21:09;18.20;99.90
25914;DHT22;13718;50.922;5.346;2023-07-13T05:23:36;18.20;99.90
25914;DHT22;13718;50.922;5.346;2023-07-13T05:26:03;18.30;99.90
25914;DHT22;13718;50.922;5.346;2023-07-13T05:28:30;18.30;99.90
25914;DHT22;13718;50.922;5.346;2023-07-13T05:30:58;18.40;99.90
25914;DHT22;13718;50.922;5.346;2023-07-13T05:33:25;18.50;99.90
25914;DHT22;13718;50.922;5.346;2023-07-13T05:35:51;18.60;99.90
25914;DHT22;13718;50.922;5.346;2023-07-13T05:38:17;18.80;99.90
25914;DHT22;13718;50.922;5.346;2023-07-13T05:40:44;18.80;99.90
25914;DHT22;13718;50.922;5.346;2023-07-13T05:43:10;19.00;99.90
25914;DHT22;13718;50.922;5.346;2023-07-13T05:45:36;19.00;99.90
25914;DHT22;13718;50.922;5.346;2023-07-13T05:48:01;19.00;99.90
25914;DHT22;13718;50.922;5.346;2023-07-13T05:50:27;19.10;99.90
25914;DHT22;13718;50.922;5.346;2023-07-13T05:52:53;19.30;99.90
25914;DHT22;13718;50.922;5.346;2023-07-13T05:55:19;19.30;99.90
25914;DHT22;13718;50.922;5.346;2023-07-13T05:57:45;19.30;99.90
25914;DHT22;13718;50.922;5.346;2023-07-13T06:00:12;19.30;99.90
25914;DHT22;13718;50.922;5.346;2023-07-13T06:02:38;19.30;99.90
25914;DHT22;13718;50.922;5.346;2023-07-13T06:05:04;19.30;99.90
25914;DHT22;13718;50.922;5.346;2023-07-13T06:07:30;19.20;99.90
25914;DHT22;13718;50.922;5.346;2023-07-13T06:09:56;19.30;99.90
25914;DHT22;13718;50.922;5.346;2023-07-13T06:12:22;19.30;99.90
25914;DHT22;13718;50.922;5.346;2023-07-13T06:14:48;19.40;99.90
25914;DHT22;13718;50.922;5.346;2023-07-13T06:17:13;19.40;99.90
25914;DHT22;13718;50.922;5.346;2023-07-13T06:19:39;19.30;99.90
25914;DHT22;13718;50.922;5.346;2023-07-13T06:22:05;19.40;99.90
25914;DHT22;13718;50.922;5.346;2023-07-13T06:24:30;19.50;99.90
25914;DHT22;13718;50.922;5.346;2023-07-13T06:26:56;19.50;99.90
25914;DHT22;13718;50.922;5.346;2023-07-13T06:29:22;19.60;99.90
25914;DHT22;13718;50.922;5.346;2023-07-13T06:31:47;19.80;99.90
25914;DHT22;13718;50.922;5.346;2023-07-13T06:34:13;19.80;99.90
25914;DHT22;13718;50.922;5.346;2023-07-13T06:36:39;19.80;99.90
25914;DHT22;13718;50.922;5.346;2023-07-13T06:39:05;19.80;99.90
25914;DHT22;13718;50.922;5.346;2023-07-13T06:41:31;19.90;99.90
25914;DHT22;13718;50.922;5.346;2023-07-13T06:43:58;20.10;99.90
25914;DHT22;13718;50.922;5.346;2023-07-13T06:46:24;20.10;99.90
25914;DHT22;13718;50.922;5.346;2023-07-13T06:48:50;20.20;99.90
25914;DHT22;13718;50.922;5.346;2023-07-13T06:51:15;20.30;99.90
25914;DHT22;13718;50.922;5.346;2023-07-13T06:53:41;20.40;99.90
25914;DHT22;13718;50.922;5.346;2023-07-13T06:56:09;20.40;99.90
25914;DHT22;13718;50.922;5.346;2023-07-13T06:58:36;20.50;99.90
25914;DHT22;13718;50.922;5.346;2023-07-13T07:01:02;20.50;99.90
25914;DHT22;13718;50.922;5.346;2023-07-13T07:03:28;20.60;99.90
25914;DHT22;13718;50.922;5.346;2023-07-13T07:05:54;20.90;99.90
25914;DHT22;13718;50.922;5.346;2023-07-13T07:08:25;20.90;99.90
25914;DHT22;13718;50.922;5.346;2023-07-13T07:10:51;21.00;99.90
25914;DHT22;13718;50.922;5.346;2023-07-13T07:13:19;21.00;99.90
25914;DHT22;13718;50.922;5.346;2023-07-13T07:15:45;21.20;99.90
25914;DHT22;13718;50.922;5.346;2023-07-13T07:18:10;21.30;99.90
25914;DHT22;13718;50.922;5.346;2023-07-13T07:20:36;21.40;99.90
25914;DHT22;13718;50.922;5.346;2023-07-13T07:23:02;21.40;99.90
25914;DHT22;13718;50.922;5.346;2023-07-13T07:25:27;21.50;99.90
25914;DHT22;13718;50.922;5.346;2023-07-13T07:27:57;21.50;99.90
25914;DHT22;13718;50.922;5.346;2023-07-13T07:30:23;21.50;99.90
25914;DHT22;13718;50.922;5.346;2023-07-13T07:32:49;21.50;99.90
25914;DHT22;13718;50.922;5.346;2023-07-13T07:35:14;21.60;99.90
25914;DHT22;13718;50.922;5.346;2023-07-13T07:37:40;21.60;99.90
25914;DHT22;13718;50.922;5.346;2023-07-13T07:40:07;21.70;99.90
25914;DHT22;13718;50.922;5.346;2023-07-13T07:42:33;21.80;99.90
25914;DHT22;13718;50.922;5.346;2023-07-13T07:44:59;22.00;99.90
25914;DHT22;13718;50.922;5.346;2023-07-13T07:47:26;22.00;99.90
25914;DHT22;13718;50.922;5.346;2023-07-13T07:49:52;22.10;99.90
25914;DHT22;13718;50.922;5.346;2023-07-13T07:52:18;22.10;99.90
25914;DHT22;13718;50.922;5.346;2023-07-13T07:54:44;22.20;99.90
25914;DHT22;13718;50.922;5.346;2023-07-13T07:57:09;22.40;99.90
25914;DHT22;13718;50.922;5.346;2023-07-13T07:59:36;22.50;99.90
25914;DHT22;13718;50.922;5.346;2023-07-13T08:02:02;22.50;99.90
25914;DHT22;13718;50.922;5.346;2023-07-13T08:04:28;22.60;99.90
25914;DHT22;13718;50.922;5.346;2023-07-13T08:06:54;22.50;99.90
25914;DHT22;13718;50.922;5.346;2023-07-13T08:09:22;22.60;99.90
25914;DHT22;13718;50.922;5.346;2023-07-13T08:11:48;22.90;99.90
25914;DHT22;13718;50.922;5.346;2023-07-13T08:14:13;23.20;99.90
25914;DHT22;13718;50.922;5.346;2023-07-13T08:16:39;23.50;99.90
25914;DHT22;13718;50.922;5.346;2023-07-13T08:19:05;23.90;99.90
25914;DHT22;13718;50.922;5.346;2023-07-13T08:21:31;24.30;99.90
25914;DHT22;13718;50.922;5.346;2023-07-13T08:23:57;24.40;99.90
25914;DHT22;13718;50.922;5.346;2023-07-13T08:26:23;24.40;99.40
25914;DHT22;13718;50.922;5.346;2023-07-13T08:28:49;24.40;99.70
25914;DHT22;13718;50.922;5.346;2023-07-13T08:31:14;24.40;99.70
25914;DHT22;13718;50.922;5.346;2023-07-13T08:33:40;24.40;99.40
25914;DHT22;13718;50.922;5.346;2023-07-13T08:36:06;24.50;99.00
25914;DHT22;13718;50.922;5.346;2023-07-13T08:38:33;24.40;98.80
25914;DHT22;13718;50.922;5.346;2023-07-13T08:40:58;24.10;99.20
25914;DHT22;13718;50.922;5.346;2023-07-13T08:43:36;24.10;99.50
25914;DHT22;13718;50.922;5.346;2023-07-13T08:46:19;24.20;99.50
25914;DHT22;13718;50.922;5.346;2023-07-13T08:48:56;24.30;99.40
25914;DHT22;13718;50.922;5.346;2023-07-13T08:53:54;24.60;98.80
25914;DHT22;13718;50.922;5.346;2023-07-13T08:56:24;24.70;98.40
25914;DHT22;13718;50.922;5.346;2023-07-13T08:59:00;24.80;97.90
25914;DHT22;13718;50.922;5.346;2023-07-13T09:04:22;25.10;97.20
25914;DHT22;13718;50.922;5.346;2023-07-13T09:09:27;25.40;96.20
25914;DHT22;13718;50.922;5.346;2023-07-13T09:12:14;25.40;96.00
25914;DHT22;13718;50.922;5.346;2023-07-13T09:14:53;25.50;95.50
25914;DHT22;13718;50.922;5.346;2023-07-13T09:18:02;26.00;95.10
25914;DHT22;13718;50.922;5.346;2023-07-13T09:20:52;26.70;94.10
25914;DHT22;13718;50.922;5.346;2023-07-13T09:23:23;26.60;92.80
25914;DHT22;13718;50.922;5.346;2023-07-13T09:25:53;27.10;92.70
25914;DHT22;13718;50.922;5.346;2023-07-13T09:28:28;27.40;91.60
25914;DHT22;13718;50.922;5.346;2023-07-13T09:33:29;29.10;87.10
25914;DHT22;13718;50.922;5.346;2023-07-13T09:35:59;30.20;83.50
25914;DHT22;13718;50.922;5.346;2023-07-13T09:38:28;31.50;79.90
25914;DHT22;13718;50.922;5.346;2023-07-13T09:44:16;30.80;75.10
25914;DHT22;13718;50.922;5.346;2023-07-13T09:46:51;30.40;77.10
25914;DHT22;13718;50.922;5.346;2023-07-13T09:49:18;30.20;76.40
25914;DHT22;13718;50.922;5.346;2023-07-13T09:51:44;30.10;76.80
25914;DHT22;13718;50.922;5.346;2023-07-13T09:54:36;29.20;77.60
25914;DHT22;13718;50.922;5.346;2023-07-13T09:57:11;28.20;80.40
25914;DHT22;13718;50.922;5.346;2023-07-13T09:59:42;27.20;81.80
25914;DHT22;13718;50.922;5.346;2023-07-13T10:02:40;26.80;84.00
25914;DHT22;13718;50.922;5.346;2023-07-13T10:05:13;26.50;84.40
25914;DHT22;13718;50.922;5.346;2023-07-13T10:07:43;26.10;86.00
25914;DHT22;13718;50.922;5.346;2023-07-13T10:10:18;25.80;86.20
25914;DHT22;13718;50.922;5.346;2023-07-13T10:12:46;25.60;86.50
25914;DHT22;13718;50.922;5.346;2023-07-13T10:15:17;25.60;87.00
25914;DHT22;13718;50.922;5.346;2023-07-13T10:17:43;25.80;87.20
25914;DHT22;13718;50.922;5.346;2023-07-13T10:20:09;25.90;87.00
25914;DHT22;13718;50.922;5.346;2023-07-13T10:23:01;26.10;87.30
25914;DHT22;13718;50.922;5.346;2023-07-13T10:25:31;26.20;85.50
25914;DHT22;13718;50.922;5.346;2023-07-13T10:30:47;26.10;86.10
25914;DHT22;13718;50.922;5.346;2023-07-13T10:33:14;26.20;85.80
25914;DHT22;13718;50.922;5.346;2023-07-13T10:35:43;26.20;85.60
25914;DHT22;13718;50.922;5.346;2023-07-13T10:38:19;26.40;85.20
25914;DHT22;13718;50.922;5.346;2023-07-13T10:41:04;26.10;84.90
25914;DHT22;13718;50.922;5.346;2023-07-13T10:43:41;26.00;86.20
25914;DHT22;13718;50.922;5.346;2023-07-13T10:46:11;26.20;84.40
25914;DHT22;13718;50.922;5.346;2023-07-13T10:48:39;26.20;85.50
25914;DHT22;13718;50.922;5.346;2023-07-13T10:51:06;25.70;85.60
25914;DHT22;13718;50.922;5.346;2023-07-13T10:53:33;25.40;88.00
25914;DHT22;13718;50.922;5.346;2023-07-13T10:56:04;24.90;90.10
25914;DHT22;13718;50.922;5.346;2023-07-13T11:04:43;24.60;90.30
25914;DHT22;13718;50.922;5.346;2023-07-13T11:07:21;25.00;90.00
25914;DHT22;13718;50.922;5.346;2023-07-13T11:09:53;25.30;90.00
25914;DHT22;13718;50.922;5.346;2023-07-13T11:19:54;26.50;85.40
25914;DHT22;13718;50.922;5.346;2023-07-13T11:22:46;26.70;83.40
25914;DHT22;13718;50.922;5.346;2023-07-13T11:25:30;26.60;83.10
25914;DHT22;13718;50.922;5.346;2023-07-13T11:36:05;26.60;82.80
25914;DHT22;13718;50.922;5.346;2023-07-13T11:41:22;26.70;82.10
25914;DHT22;13718;50.922;5.346;2023-07-13T11:43:53;26.60;82.30
25914;DHT22;13718;50.922;5.346;2023-07-13T11:46:24;26.60;82.40
25914;DHT22;13718;50.922;5.346;2023-07-13T11:48:51;26.50;82.10
25914;DHT22;13718;50.922;5.346;2023-07-13T11:51:25;26.30;83.30
25914;DHT22;13718;50.922;5.346;2023-07-13T11:53:53;26.40;82.60
25914;DHT22;13718;50.922;5.346;2023-07-13T11:56:19;26.40;82.60
25914;DHT22;13718;50.922;5.346;2023-07-13T11:58:50;26.40;82.50
25914;DHT22;13718;50.922;5.346;2023-07-13T12:01:23;26.30;80.40
25914;DHT22;13718;50.922;5.346;2023-07-13T12:03:50;26.10;81.30
25914;DHT22;13718;50.922;5.346;2023-07-13T12:06:33;26.00;82.00
25914;DHT22;13718;50.922;5.346;2023-07-13T12:09:09;26.20;80.30
25914;DHT22;13718;50.922;5.346;2023-07-13T12:11:41;26.10;79.40
25914;DHT22;13718;50.922;5.346;2023-07-13T12:14:14;26.30;80.90
25914;DHT22;13718;50.922;5.346;2023-07-13T12:16:40;26.50;80.40
25914;DHT22;13718;50.922;5.346;2023-07-13T12:19:19;26.70;80.70
25914;DHT22;13718;50.922;5.346;2023-07-13T12:21:46;27.10;80.30
25914;DHT22;13718;50.922;5.346;2023-07-13T12:24:16;27.20;78.00
25914;DHT22;13718;50.922;5.346;2023-07-13T12:26:43;27.10;77.70
25914;DHT22;13718;50.922;5.346;2023-07-13T12:29:15;26.80;77.00
25914;DHT22;13718;50.922;5.346;2023-07-13T12:31:44;26.60;76.80
25914;DHT22;13718;50.922;5.346;2023-07-13T12:34:17;26.60;76.30
25914;DHT22;13718;50.922;5.346;2023-07-13T12:37:00;26.70;76.30
25914;DHT22;13718;50.922;5.346;2023-07-13T12:42:31;26.80;77.70
25914;DHT22;13718;50.922;5.346;2023-07-13T12:45:22;27.00;76.90
25914;DHT22;13718;50.922;5.346;2023-07-13T12:47:54;27.10;76.20
25914;DHT22;13718;50.922;5.346;2023-07-13T12:50:23;27.10;76.90
25914;DHT22;13718;50.922;5.346;2023-07-13T12:52:56;27.10;76.60
25914;DHT22;13718;50.922;5.346;2023-07-13T12:55:23;27.10;76.70
25914;DHT22;13718;50.922;5.346;2023-07-13T13:02:56;27.30;73.90
25914;DHT22;13718;50.922;5.346;2023-07-13T13:05:25;27.20;74.10
25914;DHT22;13718;50.922;5.346;2023-07-13T13:07:51;27.20;74.70
25914;DHT22;13718;50.922;5.346;2023-07-13T13:10:17;27.20;74.30
25914;DHT22;13718;50.922;5.346;2023-07-13T13:12:43;26.90;71.70
25914;DHT22;13718;50.922;5.346;2023-07-13T13:15:10;26.50;73.80
25914;DHT22;13718;50.922;5.346;2023-07-13T13:17:37;26.20;73.90
25914;DHT22;13718;50.922;5.346;2023-07-13T13:20:18;26.10;74.70
25914;DHT22;13718;50.922;5.346;2023-07-13T13:22:45;26.00;75.30
25914;DHT22;13718;50.922;5.346;2023-07-13T13:25:11;25.90;75.70
25914;DHT22;13718;50.922;5.346;2023-07-13T13:27:42;25.90;76.50
25914;DHT22;13718;50.922;5.346;2023-07-13T13:30:17;25.90;76.20
25914;DHT22;13718;50.922;5.346;2023-07-13T13:32:45;25.60;77.20
25914;DHT22;13718;50.922;5.346;2023-07-13T13:35:20;25.40;84.00
25914;DHT22;13718;50.922;5.346;2023-07-13T13:37:47;25.00;91.40
25914;DHT22;13718;50.922;5.346;2023-07-13T13:40:18;24.30;91.20
25914;DHT22;13718;50.922;5.346;2023-07-13T13:42:44;23.80;92.50
25914;DHT22;13718;50.922;5.346;2023-07-13T13:45:10;23.40;91.90
25914;DHT22;13718;50.922;5.346;2023-07-13T13:47:38;23.10;92.40
25914;DHT22;13718;50.922;5.346;2023-07-13T13:50:21;23.00;92.10
25914;DHT22;13718;50.922;5.346;2023-07-13T13:52:50;23.10;92.70
25914;DHT22;13718;50.922;5.346;2023-07-13T13:55:19;23.20;92.30
25914;DHT22;13718;50.922;5.346;2023-07-13T13:57:46;23.30;91.70
25914;DHT22;13718;50.922;5.346;2023-07-13T14:00:13;23.20;91.90
25914;DHT22;13718;50.922;5.346;2023-07-13T14:02:41;22.90;92.30
25914;DHT22;13718;50.922;5.346;2023-07-13T14:05:11;22.80;92.40
25914;DHT22;13718;50.922;5.346;2023-07-13T14:07:37;22.90;93.00
25914;DHT22;13718;50.922;5.346;2023-07-13T14:10:14;23.00;92.90
25914;DHT22;13718;50.922;5.346;2023-07-13T14:12:44;23.00;92.80
25914;DHT22;13718;50.922;5.346;2023-07-13T14:15:27;23.00;93.00
25914;DHT22;13718;50.922;5.346;2023-07-13T14:17:54;23.00;92.90
25914;DHT22;13718;50.922;5.346;2023-07-13T14:20:21;23.10;92.90
25914;DHT22;13718;50.922;5.346;2023-07-13T14:22:50;23.30;93.00
25914;DHT22;13718;50.922;5.346;2023-07-13T14:25:17;23.60;92.90
25914;DHT22;13718;50.922;5.346;2023-07-13T14:27:44;23.90;92.40
25914;DHT22;13718;50.922;5.346;2023-07-13T14:30:15;24.10;91.70
25914;DHT22;13718;50.922;5.346;2023-07-13T14:32:42;24.30;91.50
25914;DHT22;13718;50.922;5.346;2023-07-13T14:35:14;24.50;91.30
25914;DHT22;13718;50.922;5.346;2023-07-13T14:37:41;24.60;91.00
25914;DHT22;13718;50.922;5.346;2023-07-13T14:42:39;24.70;91.10
25914;DHT22;13718;50.922;5.346;2023-07-13T14:45:05;24.60;90.70
25914;DHT22;13718;50.922;5.346;2023-07-13T14:47:31;24.60;90.80
25914;DHT22;13718;50.922;5.346;2023-07-13T14:49:57;24.60;90.90
25914;DHT22;13718;50.922;5.346;2023-07-13T14:52:23;24.50;90.80
25914;DHT22;13718;50.922;5.346;2023-07-13T14:54:50;24.40;91.00
25914;DHT22;13718;50.922;5.346;2023-07-13T14:57:18;24.60;91.00
25914;DHT22;13718;50.922;5.346;2023-07-13T14:59:44;24.80;90.60
25914;DHT22;13718;50.922;5.346;2023-07-13T15:04:39;25.20;89.30
25914;DHT22;13718;50.922;5.346;2023-07-13T15:07:05;25.20;88.30
25914;DHT22;13718;50.922;5.346;2023-07-13T15:09:34;25.30;88.10
25914;DHT22;13718;50.922;5.346;2023-07-13T15:12:00;25.40;87.60
25914;DHT22;13718;50.922;5.346;2023-07-13T15:14:26;25.50;86.50
25914;DHT22;13718;50.922;5.346;2023-07-13T15:16:55;25.40;84.90
25914;DHT22;13718;50.922;5.346;2023-07-13T15:19:21;25.40;84.70
25914;DHT22;13718;50.922;5.346;2023-07-13T15:21:49;25.50;85.30
25914;DHT22;13718;50.922;5.346;2023-07-13T15:24:15;25.60;85.10
25914;DHT22;13718;50.922;5.346;2023-07-13T15:26:42;25.80;84.40
25914;DHT22;13718;50.922;5.346;2023-07-13T15:29:11;25.90;83.70
25914;DHT22;13718;50.922;5.346;2023-07-13T15:31:37;26.00;82.90
25914;DHT22;13718;50.922;5.346;2023-07-13T15:34:13;26.00;83.00
25914;DHT22;13718;50.922;5.346;2023-07-13T15:36:39;25.90;83.50
25914;DHT22;13718;50.922;5.346;2023-07-13T15:39:05;25.80;83.20
25914;DHT22;13718;50.922;5.346;2023-07-13T15:41:32;25.70;83.10
25914;DHT22;13718;50.922;5.346;2023-07-13T15:43:59;25.60;83.90
25914;DHT22;13718;50.922;5.346;2023-07-13T15:46:27;25.60;84.40
25914;DHT22;13718;50.922;5.346;2023-07-13T15:48:54;25.50;83.60
25914;DHT22;13718;50.922;5.346;2023-07-13T15:51:29;25.40;84.10
25914;DHT22;13718;50.922;5.346;2023-07-13T15:53:58;25.40;83.60
25914;DHT22;13718;50.922;5.346;2023-07-13T15:56:27;25.20;84.60
25914;DHT22;13718;50.922;5.346;2023-07-13T15:58:54;25.20;83.70
25914;DHT22;13718;50.922;5.346;2023-07-13T16:01:22;25.20;83.60
25914;DHT22;13718;50.922;5.346;2023-07-13T16:03:48;25.20;83.30
25914;DHT22;13718;50.922;5.346;2023-07-13T16:06:22;25.10;82.20
25914;DHT22;13718;50.922;5.346;2023-07-13T16:08:49;25.20;81.90
25914;DHT22;13718;50.922;5.346;2023-07-13T16:11:27;25.20;80.20
25914;DHT22;13718;50.922;5.346;2023-07-13T16:13:53;25.20;80.60
25914;DHT22;13718;50.922;5.346;2023-07-13T16:16:22;25.20;80.80
25914;DHT22;13718;50.922;5.346;2023-07-13T16:18:54;25.10;80.80
25914;DHT22;13718;50.922;5.346;2023-07-13T16:21:26;25.10;80.50
25914;DHT22;13718;50.922;5.346;2023-07-13T16:23:52;25.20;81.80
25914;DHT22;13718;50.922;5.346;2023-07-13T16:26:34;25.30;81.30
25914;DHT22;13718;50.922;5.346;2023-07-13T16:29:22;25.40;82.20
25914;DHT22;13718;50.922;5.346;2023-07-13T16:32:01;25.50;80.50